sensor_id;sensor_type;location;lat;lon;timestamp;P1;durP1;ratioP1;P2;durP2;ratioP2
10705;SDS011;5404;42.656;23.336;2022-10-23T00:04:06;1.67;;;1.57;;
10705;SDS011;5404;42.656;23.336;2022-10-23T00:06:35;2.73;;;2.53;;
10705;SDS011;5404;42.656;23.336;2022-10-23T00:09:02;0.60;;;0.60;;
10705;SDS011;5404;42.656;23.336;2022-10-23T00:11:29;1.73;;;1.10;;
10705;SDS011;5404;42.656;23.336;2022-10-23T00:13:56;0.10;;;0.10;;
10705;SDS011;5404;42.656;23.336;2022-10-23T00:16:25;1.93;;;1.47;;
10705;SDS011;5404;42.656;23.336;2022-10-23T00:18:51;1.90;;;1.80;;
10705;SDS011;5404;42.656;23.336;2022-10-23T00:21:17;0.83;;;0.83;;
10705;SDS011;5404;42.656;23.336;2022-10-23T00:23:43;0.00;;;0.00;;
10705;SDS011;5404;42.656;23.336;2022-10-23T00:26:09;1.63;;;0.87;;
10705;SDS011;5404;42.656;23.336;2022-10-23T00:28:39;2.30;;;2.20;;
10705;SDS011;5404;42.656;23.336;2022-10-23T00:31:05;0.00;;;0.00;;
10705;SDS011;5404;42.656;23.336;2022-10-23T00:33:31;0.00;;;0.00;;
10705;SDS011;5404;42.656;23.336;2022-10-23T00:35:57;0.00;;;0.00;;
10705;SDS011;5404;42.656;23.336;2022-10-23T00:38:22;0.00;;;0.00;;
10705;SDS011;5404;42.656;23.336;2022-10-23T00:40:48;0.00;;;0.00;;
10705;SDS011;5404;42.656;23.336;2022-10-23T00:43:18;0.00;;;0.00;;
10705;SDS011;5404;42.656;23.336;2022-10-23T00:45:46;0.50;;;0.50;;
10705;SDS011;5404;42.656;23.336;2022-10-23T00:48:12;3.10;;;3.00;;
10705;SDS011;5404;42.656;23.336;2022-10-23T00:50:37;3.77;;;3.47;;
10705;SDS011;5404;42.656;23.336;2022-10-23T00:53:04;2.23;;;2.03;;
10705;SDS011;5404;42.656;23.336;2022-10-23T00:55:31;0.00;;;0.00;;
10705;SDS011;5404;42.656;23.336;2022-10-23T00:57:58;0.30;;;0.30;;
10705;SDS011;5404;42.656;23.336;2022-10-23T01:00:25;0.00;;;0.00;;
10705;SDS011;5404;42.656;23.336;2022-10-23T01:02:55;2.23;;;2.03;;
10705;SDS011;5404;42.656;23.336;2022-10-23T01:05:24;1.80;;;1.70;;
10705;SDS011;5404;42.656;23.336;2022-10-23T01:08:00;1.30;;;0.73;;
10705;SDS011;5404;42.656;23.336;2022-10-23T01:13:04;5.00;;;3.23;;
10705;SDS011;5404;42.656;23.336;2022-10-23T01:15:48;3.70;;;2.13;;
10705;SDS011;5404;42.656;23.336;2022-10-23T01:18:37;2.03;;;0.80;;
10705;SDS011;5404;42.656;23.336;2022-10-23T01:21:16;11.63;;;4.43;;
10705;SDS011;5404;42.656;23.336;2022-10-23T01:29:00;1.07;;;0.77;;
10705;SDS011;5404;42.656;23.336;2022-10-23T01:31:39;0.63;;;0.63;;
10705;SDS011;5404;42.656;23.336;2022-10-23T01:34:11;1.83;;;1.83;;
10705;SDS011;5404;42.656;23.336;2022-10-23T01:36:46;1.20;;;1.10;;
10705;SDS011;5404;42.656;23.336;2022-10-23T01:39:18;13.07;;;5.20;;
10705;SDS011;5404;42.656;23.336;2022-10-23T01:41:59;3.30;;;3.00;;
10705;SDS011;5404;42.656;23.336;2022-10-23T01:44:38;4.83;;;3.53;;
10705;SDS011;5404;42.656;23.336;2022-10-23T01:47:08;5.50;;;5.10;;
10705;SDS011;5404;42.656;23.336;2022-10-23T01:49:37;5.17;;;3.40;;
10705;SDS011;5404;42.656;23.336;2022-10-23T01:52:07;7.73;;;5.43;;
10705;SDS011;5404;42.656;23.336;2022-10-23T01:54:37;13.13;;;7.93;;
10705;SDS011;5404;42.656;23.336;2022-10-23T01:57:09;8.30;;;6.17;;
10705;SDS011;5404;42.656;23.336;2022-10-23T01:59:38;5.83;;;5.23;;
10705;SDS011;5404;42.656;23.336;2022-10-23T02:02:09;2.97;;;1.73;;
10705;SDS011;5404;42.656;23.336;2022-10-23T02:04:37;2.00;;;1.90;;
10705;SDS011;5404;42.656;23.336;2022-10-23T02:07:05;2.80;;;2.20;;
10705;SDS011;5404;42.656;23.336;2022-10-23T02:09:31;2.10;;;1.27;;
10705;SDS011;5404;42.656;23.336;2022-10-23T02:11:58;0.40;;;0.40;;
10705;SDS011;5404;42.656;23.336;2022-10-23T02:17:05;2.60;;;1.40;;
10705;SDS011;5404;42.656;23.336;2022-10-23T02:19:57;0.70;;;0.67;;
10705;SDS011;5404;42.656;23.336;2022-10-23T02:22:32;0.00;;;0.00;;
10705;SDS011;5404;42.656;23.336;2022-10-23T02:27:36;4.20;;;2.53;;
10705;SDS011;5404;42.656;23.336;2022-10-23T02:30:07;10.00;;;5.80;;
10705;SDS011;5404;42.656;23.336;2022-10-23T02:32:35;12.40;;;7.27;;
10705;SDS011;5404;42.656;23.336;2022-10-23T02:35:05;22.73;;;3.83;;
10705;SDS011;5404;42.656;23.336;2022-10-23T02:37:32;10.10;;;7.13;;
10705;SDS011;5404;42.656;23.336;2022-10-23T02:39:57;5.93;;;1.73;;
10705;SDS011;5404;42.656;23.336;2022-10-23T02:45:06;0.00;;;0.00;;
10705;SDS011;5404;42.656;23.336;2022-10-23T02:47:45;0.00;;;0.00;;
10705;SDS011;5404;42.656;23.336;2022-10-23T02:56:19;0.00;;;0.00;;
10705;SDS011;5404;42.656;23.336;2022-10-23T03:01:44;0.00;;;0.00;;
10705;SDS011;5404;42.656;23.336;2022-10-23T03:04:30;0.57;;;0.57;;
10705;SDS011;5404;42.656;23.336;2022-10-23T03:06:57;0.40;;;0.40;;
10705;SDS011;5404;42.656;23.336;2022-10-23T03:09:23;0.00;;;0.00;;
10705;SDS011;5404;42.656;23.336;2022-10-23T03:11:51;0.00;;;0.00;;
10705;SDS011;5404;42.656;23.336;2022-10-23T03:14:17;0.00;;;0.00;;
10705;SDS011;5404;42.656;23.336;2022-10-23T03:16:43;0.33;;;0.33;;
10705;SDS011;5404;42.656;23.336;2022-10-23T03:19:10;0.00;;;0.00;;
10705;SDS011;5404;42.656;23.336;2022-10-23T03:21:36;0.73;;;0.73;;
10705;SDS011;5404;42.656;23.336;2022-10-23T03:24:01;0.00;;;0.00;;
10705;SDS011;5404;42.656;23.336;2022-10-23T03:26:27;0.00;;;0.00;;
10705;SDS011;5404;42.656;23.336;2022-10-23T03:28:52;0.40;;;0.40;;
10705;SDS011;5404;42.656;23.336;2022-10-23T03:31:18;2.97;;;1.70;;
10705;SDS011;5404;42.656;23.336;2022-10-23T03:33:43;0.00;;;0.00;;
10705;SDS011;5404;42.656;23.336;2022-10-23T03:36:08;0.10;;;0.10;;
10705;SDS011;5404;42.656;23.336;2022-10-23T03:38:34;0.10;;;0.10;;
10705;SDS011;5404;42.656;23.336;2022-10-23T03:41:00;0.57;;;0.20;;
10705;SDS011;5404;42.656;23.336;2022-10-23T03:43:25;0.00;;;0.00;;
10705;SDS011;5404;42.656;23.336;2022-10-23T03:45:50;0.00;;;0.00;;
10705;SDS011;5404;42.656;23.336;2022-10-23T03:48:16;4.43;;;3.40;;
10705;SDS011;5404;42.656;23.336;2022-10-23T03:50:42;0.30;;;0.30;;
10705;SDS011;5404;42.656;23.336;2022-10-23T03:53:07;3.63;;;2.93;;
10705;SDS011;5404;42.656;23.336;2022-10-23T03:55:32;1.97;;;1.87;;
10705;SDS011;5404;42.656;23.336;2022-10-23T03:57:58;0.10;;;0.10;;
10705;SDS011;5404;42.656;23.336;2022-10-23T04:00:23;3.37;;;3.00;;
10705;SDS011;5404;42.656;23.336;2022-10-23T04:02:49;1.43;;;1.27;;
10705;SDS011;5404;42.656;23.336;2022-10-23T04:05:14;1.30;;;1.20;;
10705;SDS011;5404;42.656;23.336;2022-10-23T04:07:40;2.53;;;2.33;;
10705;SDS011;5404;42.656;23.336;2022-10-23T04:10:05;10.40;;;2.10;;
10705;SDS011;5404;42.656;23.336;2022-10-23T04:12:31;6.50;;;2.23;;
10705;SDS011;5404;42.656;23.336;2022-10-23T04:14:57;1.63;;;1.53;;
10705;SDS011;5404;42.656;23.336;2022-10-23T04:17:22;3.97;;;2.00;;
10705;SDS011;5404;42.656;23.336;2022-10-23T04:19:47;1.53;;;0.93;;
10705;SDS011;5404;42.656;23.336;2022-10-23T04:22:13;1.10;;;0.63;;
10705;SDS011;5404;42.656;23.336;2022-10-23T04:24:39;0.93;;;0.93;;
10705;SDS011;5404;42.656;23.336;2022-10-23T04:27:09;1.15;;;1.15;;
10705;SDS011;5404;42.656;23.336;2022-10-23T04:29:34;0.40;;;0.40;;
10705;SDS011;5404;42.656;23.336;2022-10-23T04:32:00;0.00;;;0.00;;
10705;SDS011;5404;42.656;23.336;2022-10-23T04:34:25;0.17;;;0.17;;
10705;SDS011;5404;42.656;23.336;2022-10-23T04:36:51;0.00;;;0.00;;
10705;SDS011;5404;42.656;23.336;2022-10-23T04:39:16;0.00;;;0.00;;
10705;SDS011;5404;42.656;23.336;2022-10-23T04:41:41;0.00;;;0.00;;
10705;SDS011;5404;42.656;23.336;2022-10-23T04:44:07;0.13;;;0.13;;
10705;SDS011;5404;42.656;23.336;2022-10-23T04:46:32;0.00;;;0.00;;
10705;SDS011;5404;42.656;23.336;2022-10-23T04:48:58;0.00;;;0.00;;
10705;SDS011;5404;42.656;23.336;2022-10-23T04:51:23;0.00;;;0.00;;
10705;SDS011;5404;42.656;23.336;2022-10-23T04:53:49;1.30;;;0.40;;
10705;SDS011;5404;42.656;23.336;2022-10-23T04:56:14;0.00;;;0.00;;
10705;SDS011;5404;42.656;23.336;2022-10-23T04:58:40;0.00;;;0.00;;
10705;SDS011;5404;42.656;23.336;2022-10-23T05:01:06;0.00;;;0.00;;
10705;SDS011;5404;42.656;23.336;2022-10-23T05:03:34;0.00;;;0.00;;
10705;SDS011;5404;42.656;23.336;2022-10-23T05:06:00;2.07;;;1.97;;
10705;SDS011;5404;42.656;23.336;2022-10-23T05:08:25;0.03;;;0.03;;
10705;SDS011;5404;42.656;23.336;2022-10-23T05:10:51;0.00;;;0.00;;
10705;SDS011;5404;42.656;23.336;2022-10-23T05:13:17;0.40;;;0.40;;
10705;SDS011;5404;42.656;23.336;2022-10-23T05:15:44;0.00;;;0.00;;
10705;SDS011;5404;42.656;23.336;2022-10-23T05:18:12;0.27;;;0.27;;
10705;SDS011;5404;42.656;23.336;2022-10-23T05:20:45;0.00;;;0.00;;
10705;SDS011;5404;42.656;23.336;2022-10-23T05:23:13;0.07;;;0.07;;
10705;SDS011;5404;42.656;23.336;2022-10-23T05:25:40;0.00;;;0.00;;
10705;SDS011;5404;42.656;23.336;2022-10-23T05:28:05;0.00;;;0.00;;
10705;SDS011;5404;42.656;23.336;2022-10-23T05:30:31;10.05;;;1.25;;
10705;SDS011;5404;42.656;23.336;2022-10-23T05:32:58;0.15;;;0.13;;
10705;SDS011;5404;42.656;23.336;2022-10-23T05:35:25;1.25;;;0.60;;
10705;SDS011;5404;42.656;23.336;2022-10-23T05:37:52;0.20;;;0.20;;
10705;SDS011;5404;42.656;23.336;2022-10-23T05:40:19;1.10;;;0.57;;
10705;SDS011;5404;42.656;23.336;2022-10-23T05:42:45;0.98;;;0.45;;
10705;SDS011;5404;42.656;23.336;2022-10-23T05:45:10;0.00;;;0.00;;
10705;SDS011;5404;42.656;23.336;2022-10-23T05:47:36;0.10;;;0.10;;
10705;SDS011;5404;42.656;23.336;2022-10-23T05:50:01;0.10;;;0.10;;
10705;SDS011;5404;42.656;23.336;2022-10-23T05:52:27;0.10;;;0.10;;
10705;SDS011;5404;42.656;23.336;2022-10-23T05:54:53;0.00;;;0.00;;
10705;SDS011;5404;42.656;23.336;2022-10-23T05:57:18;1.55;;;1.20;;
10705;SDS011;5404;42.656;23.336;2022-10-23T05:59:44;0.08;;;0.08;;
10705;SDS011;5404;42.656;23.336;2022-10-23T06:02:09;0.00;;;0.00;;
10705;SDS011;5404;42.656;23.336;2022-10-23T06:04:34;0.00;;;0.00;;
10705;SDS011;5404;42.656;23.336;2022-10-23T06:07:00;0.47;;;0.47;;
10705;SDS011;5404;42.656;23.336;2022-10-23T06:09:27;2.83;;;2.72;;
10705;SDS011;5404;42.656;23.336;2022-10-23T06:11:52;0.00;;;0.00;;
10705;SDS011;5404;42.656;23.336;2022-10-23T06:14:18;0.00;;;0.00;;
10705;SDS011;5404;42.656;23.336;2022-10-23T06:16:43;0.00;;;0.00;;
10705;SDS011;5404;42.656;23.336;2022-10-23T06:19:09;0.60;;;0.60;;
10705;SDS011;5404;42.656;23.336;2022-10-23T06:21:36;0.00;;;0.00;;
10705;SDS011;5404;42.656;23.336;2022-10-23T06:24:03;0.75;;;0.75;;
10705;SDS011;5404;42.656;23.336;2022-10-23T06:26:29;1.98;;;1.88;;
10705;SDS011;5404;42.656;23.336;2022-10-23T06:28:55;0.00;;;0.00;;
10705;SDS011;5404;42.656;23.336;2022-10-23T06:31:20;0.10;;;0.10;;
10705;SDS011;5404;42.656;23.336;2022-10-23T06:33:50;1.10;;;0.82;;
10705;SDS011;5404;42.656;23.336;2022-10-23T06:36:16;1.45;;;1.38;;
10705;SDS011;5404;42.656;23.336;2022-10-23T06:38:42;0.70;;;0.55;;
10705;SDS011;5404;42.656;23.336;2022-10-23T06:41:17;2.03;;;1.10;;
10705;SDS011;5404;42.656;23.336;2022-10-23T06:43:48;6.55;;;3.08;;
10705;SDS011;5404;42.656;23.336;2022-10-23T06:46:15;0.00;;;0.00;;
10705;SDS011;5404;42.656;23.336;2022-10-23T06:48:41;0.00;;;0.00;;
10705;SDS011;5404;42.656;23.336;2022-10-23T06:51:08;0.95;;;0.45;;
10705;SDS011;5404;42.656;23.336;2022-10-23T06:53:35;3.30;;;1.55;;
10705;SDS011;5404;42.656;23.336;2022-10-23T06:56:01;0.17;;;0.17;;
10705;SDS011;5404;42.656;23.336;2022-10-23T06:58:28;0.00;;;0.00;;
10705;SDS011;5404;42.656;23.336;2022-10-23T07:00:54;0.00;;;0.00;;
10705;SDS011;5404;42.656;23.336;2022-10-23T07:03:20;0.17;;;0.17;;
10705;SDS011;5404;42.656;23.336;2022-10-23T07:05:45;1.85;;;1.55;;
10705;SDS011;5404;42.656;23.336;2022-10-23T07:08:14;0.52;;;0.52;;
10705;SDS011;5404;42.656;23.336;2022-10-23T07:10:39;1.63;;;1.52;;
10705;SDS011;5404;42.656;23.336;2022-10-23T07:13:08;0.98;;;0.75;;
10705;SDS011;5404;42.656;23.336;2022-10-23T07:15:34;1.45;;;0.73;;
10705;SDS011;5404;42.656;23.336;2022-10-23T07:18:00;0.25;;;0.25;;
10705;SDS011;5404;42.656;23.336;2022-10-23T07:20:26;0.77;;;0.57;;
10705;SDS011;5404;42.656;23.336;2022-10-23T07:22:52;0.00;;;0.00;;
10705;SDS011;5404;42.656;23.336;2022-10-23T07:25:20;0.45;;;0.43;;
10705;SDS011;5404;42.656;23.336;2022-10-23T07:27:46;0.40;;;0.40;;
10705;SDS011;5404;42.656;23.336;2022-10-23T07:30:12;2.63;;;0.55;;
10705;SDS011;5404;42.656;23.336;2022-10-23T07:32:38;0.13;;;0.13;;
10705;SDS011;5404;42.656;23.336;2022-10-23T07:35:04;1.55;;;0.90;;
10705;SDS011;5404;42.656;23.336;2022-10-23T07:37:32;0.00;;;0.00;;
10705;SDS011;5404;42.656;23.336;2022-10-23T07:39:58;2.28;;;0.95;;
10705;SDS011;5404;42.656;23.336;2022-10-23T07:42:23;1.33;;;0.82;;
10705;SDS011;5404;42.656;23.336;2022-10-23T07:44:49;6.13;;;0.63;;
10705;SDS011;5404;42.656;23.336;2022-10-23T07:47:14;1.27;;;1.00;;
10705;SDS011;5404;42.656;23.336;2022-10-23T07:49:40;3.92;;;1.40;;
10705;SDS011;5404;42.656;23.336;2022-10-23T07:52:05;1.42;;;1.02;;
10705;SDS011;5404;42.656;23.336;2022-10-23T07:54:31;0.00;;;0.00;;
10705;SDS011;5404;42.656;23.336;2022-10-23T07:57:00;2.17;;;0.82;;
10705;SDS011;5404;42.656;23.336;2022-10-23T07:59:25;0.10;;;0.10;;
10705;SDS011;5404;42.656;23.336;2022-10-23T08:01:51;0.80;;;0.80;;
10705;SDS011;5404;42.656;23.336;2022-10-23T08:04:19;0.13;;;0.13;;
10705;SDS011;5404;42.656;23.336;2022-10-23T08:06:44;0.20;;;0.10;;
10705;SDS011;5404;42.656;23.336;2022-10-23T08:09:09;0.80;;;0.80;;
10705;SDS011;5404;42.656;23.336;2022-10-23T08:11:35;0.70;;;0.70;;
10705;SDS011;5404;42.656;23.336;2022-10-23T08:14:01;5.78;;;1.40;;
10705;SDS011;5404;42.656;23.336;2022-10-23T08:16:31;2.53;;;1.23;;
10705;SDS011;5404;42.656;23.336;2022-10-23T08:18:58;0.60;;;0.60;;
10705;SDS011;5404;42.656;23.336;2022-10-23T08:21:24;0.10;;;0.10;;
10705;SDS011;5404;42.656;23.336;2022-10-23T08:23:53;1.73;;;1.38;;
10705;SDS011;5404;42.656;23.336;2022-10-23T08:26:20;0.00;;;0.00;;
10705;SDS011;5404;42.656;23.336;2022-10-23T08:28:46;0.47;;;0.32;;
10705;SDS011;5404;42.656;23.336;2022-10-23T08:31:15;1.50;;;0.85;;
10705;SDS011;5404;42.656;23.336;2022-10-23T08:33:41;0.25;;;0.10;;
10705;SDS011;5404;42.656;23.336;2022-10-23T08:38:44;0.82;;;0.68;;
10705;SDS011;5404;42.656;23.336;2022-10-23T08:50:21;2.17;;;0.77;;
10705;SDS011;5404;42.656;23.336;2022-10-23T08:56:13;0.00;;;0.00;;
10705;SDS011;5404;42.656;23.336;2022-10-23T08:58:58;3.58;;;3.42;;
10705;SDS011;5404;42.656;23.336;2022-10-23T09:01:36;0.28;;;0.10;;
10705;SDS011;5404;42.656;23.336;2022-10-23T09:04:04;0.08;;;0.08;;
10705;SDS011;5404;42.656;23.336;2022-10-23T09:09:54;0.20;;;0.20;;
10705;SDS011;5404;42.656;23.336;2022-10-23T09:12:56;0.08;;;0.08;;
10705;SDS011;5404;42.656;23.336;2022-10-23T09:15:30;0.55;;;0.55;;
10705;SDS011;5404;42.656;23.336;2022-10-23T09:18:13;0.70;;;0.70;;
10705;SDS011;5404;42.656;23.336;2022-10-23T09:20:43;0.00;;;0.00;;
10705;SDS011;5404;42.656;23.336;2022-10-23T09:23:16;1.13;;;0.63;;
10705;SDS011;5404;42.656;23.336;2022-10-23T09:25:45;0.03;;;0.03;;
10705;SDS011;5404;42.656;23.336;2022-10-23T09:28:22;0.00;;;0.00;;
10705;SDS011;5404;42.656;23.336;2022-10-23T09:30:51;1.48;;;0.50;;
10705;SDS011;5404;42.656;23.336;2022-10-23T09:33:25;0.70;;;0.45;;
10705;SDS011;5404;42.656;23.336;2022-10-23T09:35:58;0.20;;;0.20;;
10705;SDS011;5404;42.656;23.336;2022-10-23T09:41:23;1.55;;;1.45;;
10705;SDS011;5404;42.656;23.336;2022-10-23T09:46:41;0.08;;;0.08;;
10705;SDS011;5404;42.656;23.336;2022-10-23T09:49:45;0.00;;;0.00;;
10705;SDS011;5404;42.656;23.336;2022-10-23T09:52:04;0.52;;;0.52;;
10705;SDS011;5404;42.656;23.336;2022-10-23T09:54:33;0.15;;;0.15;;
10705;SDS011;5404;42.656;23.336;2022-10-23T09:57:14;0.28;;;0.28;;
10705;SDS011;5404;42.656;23.336;2022-10-23T09:59:48;0.00;;;0.00;;
10705;SDS011;5404;42.656;23.336;2022-10-23T10:02:28;0.52;;;0.20;;
10705;SDS011;5404;42.656;23.336;2022-10-23T10:04:56;0.00;;;0.00;;
10705;SDS011;5404;42.656;23.336;2022-10-23T10:07:24;0.00;;;0.00;;
10705;SDS011;5404;42.656;23.336;2022-10-23T10:09:51;0.88;;;0.65;;
10705;SDS011;5404;42.656;23.336;2022-10-23T10:23:09;0.00;;;0.00;;
10705;SDS011;5404;42.656;23.336;2022-10-23T10:25:59;0.82;;;0.60;;
10705;SDS011;5404;42.656;23.336;2022-10-23T10:31:29;0.00;;;0.00;;
10705;SDS011;5404;42.656;23.336;2022-10-23T10:36:41;0.00;;;0.00;;
10705;SDS011;5404;42.656;23.336;2022-10-23T10:57:43;0.20;;;0.20;;
10705;SDS011;5404;42.656;23.336;2022-10-23T11:00:16;0.10;;;0.10;;
10705;SDS011;5404;42.656;23.336;2022-10-23T11:02:45;0.20;;;0.20;;
10705;SDS011;5404;42.656;23.336;2022-10-23T11:10:19;0.03;;;0.03;;
10705;SDS011;5404;42.656;23.336;2022-10-23T11:12:46;0.30;;;0.30;;
10705;SDS011;5404;42.656;23.336;2022-10-23T11:15:13;0.85;;;0.60;;
10705;SDS011;5404;42.656;23.336;2022-10-23T11:17:43;0.10;;;0.10;;
10705;SDS011;5404;42.656;23.336;2022-10-23T11:20:16;0.90;;;0.10;;
10705;SDS011;5404;42.656;23.336;2022-10-23T11:31:52;0.28;;;0.13;;
10705;SDS011;5404;42.656;23.336;2022-10-23T11:37:02;0.25;;;0.20;;
10705;SDS011;5404;42.656;23.336;2022-10-23T11:39:32;0.13;;;0.13;;
10705;SDS011;5404;42.656;23.336;2022-10-23T11:44:44;0.00;;;0.00;;
10705;SDS011;5404;42.656;23.336;2022-10-23T11:55:59;0.00;;;0.00;;
10705;SDS011;5404;42.656;23.336;2022-10-23T11:58:44;0.25;;;0.20;;
10705;SDS011;5404;42.656;23.336;2022-10-23T12:06:41;0.30;;;0.30;;
10705;SDS011;5404;42.656;23.336;2022-10-23T12:12:12;0.35;;;0.20;;
10705;SDS011;5404;42.656;23.336;2022-10-23T12:17:21;5.72;;;0.98;;
10705;SDS011;5404;42.656;23.336;2022-10-23T12:20:03;0.30;;;0.10;;
10705;SDS011;5404;42.656;23.336;2022-10-23T12:25:13;0.17;;;0.17;;
10705;SDS011;5404;42.656;23.336;2022-10-23T12:33:45;0.10;;;0.10;;
10705;SDS011;5404;42.656;23.336;2022-10-23T12:36:32;1.25;;;1.05;;
10705;SDS011;5404;42.656;23.336;2022-10-23T12:39:26;0.10;;;0.10;;
10705;SDS011;5404;42.656;23.336;2022-10-23T12:41:54;0.28;;;0.28;;
10705;SDS011;5404;42.656;23.336;2022-10-23T12:44:20;0.00;;;0.00;;
10705;SDS011;5404;42.656;23.336;2022-10-23T12:46:47;0.35;;;0.30;;
10705;SDS011;5404;42.656;23.336;2022-10-23T12:49:17;0.00;;;0.00;;
10705;SDS011;5404;42.656;23.336;2022-10-23T12:51:45;1.10;;;0.80;;
10705;SDS011;5404;42.656;23.336;2022-10-23T12:54:20;0.05;;;0.00;;
10705;SDS011;5404;42.656;23.336;2022-10-23T12:56:46;0.00;;;0.00;;
10705;SDS011;5404;42.656;23.336;2022-10-23T12:59:16;0.63;;;0.35;;
10705;SDS011;5404;42.656;23.336;2022-10-23T13:01:50;0.20;;;0.20;;
10705;SDS011;5404;42.656;23.336;2022-10-23T13:04:35;0.10;;;0.10;;
10705;SDS011;5404;42.656;23.336;2022-10-23T13:07:02;0.38;;;0.38;;
10705;SDS011;5404;42.656;23.336;2022-10-23T13:11:56;0.75;;;0.30;;
10705;SDS011;5404;42.656;23.336;2022-10-23T13:14:33;0.65;;;0.10;;
10705;SDS011;5404;42.656;23.336;2022-10-23T13:17:05;0.25;;;0.25;;
10705;SDS011;5404;42.656;23.336;2022-10-23T13:19:32;0.10;;;0.10;;
10705;SDS011;5404;42.656;23.336;2022-10-23T13:22:02;0.65;;;0.20;;
10705;SDS011;5404;42.656;23.336;2022-10-23T13:24:38;0.20;;;0.20;;
10705;SDS011;5404;42.656;23.336;2022-10-23T13:27:20;0.00;;;0.00;;
10705;SDS011;5404;42.656;23.336;2022-10-23T13:29:58;0.10;;;0.10;;
10705;SDS011;5404;42.656;23.336;2022-10-23T13:32:27;0.10;;;0.10;;
10705;SDS011;5404;42.656;23.336;2022-10-23T13:34:55;0.25;;;0.20;;
10705;SDS011;5404;42.656;23.336;2022-10-23T13:37:27;0.00;;;0.00;;
10705;SDS011;5404;42.656;23.336;2022-10-23T13:40:17;0.00;;;0.00;;
10705;SDS011;5404;42.656;23.336;2022-10-23T13:42:53;0.70;;;0.50;;
10705;SDS011;5404;42.656;23.336;2022-10-23T13:45:23;0.00;;;0.00;;
10705;SDS011;5404;42.656;23.336;2022-10-23T13:47:50;0.00;;;0.00;;
10705;SDS011;5404;42.656;23.336;2022-10-23T13:50:15;0.93;;;0.93;;
10705;SDS011;5404;42.656;23.336;2022-10-23T13:52:42;0.10;;;0.10;;
10705;SDS011;5404;42.656;23.336;2022-10-23T13:55:14;0.22;;;0.22;;
10705;SDS011;5404;42.656;23.336;2022-10-23T13:57:46;0.55;;;0.10;;
10705;SDS011;5404;42.656;23.336;2022-10-23T14:00:11;0.00;;;0.00;;
10705;SDS011;5404;42.656;23.336;2022-10-23T14:02:37;0.00;;;0.00;;
10705;SDS011;5404;42.656;23.336;2022-10-23T14:05:03;0.00;;;0.00;;
10705;SDS011;5404;42.656;23.336;2022-10-23T14:07:28;0.43;;;0.00;;
10705;SDS011;5404;42.656;23.336;2022-10-23T14:09:54;0.25;;;0.25;;
10705;SDS011;5404;42.656;23.336;2022-10-23T14:12:19;0.00;;;0.00;;
10705;SDS011;5404;42.656;23.336;2022-10-23T14:14:49;2.28;;;0.82;;
10705;SDS011;5404;42.656;23.336;2022-10-23T14:17:15;0.00;;;0.00;;
10705;SDS011;5404;42.656;23.336;2022-10-23T14:19:41;0.20;;;0.20;;
10705;SDS011;5404;42.656;23.336;2022-10-23T14:22:07;0.00;;;0.00;;
10705;SDS011;5404;42.656;23.336;2022-10-23T14:24:32;0.10;;;0.10;;
10705;SDS011;5404;42.656;23.336;2022-10-23T14:26:58;0.00;;;0.00;;
10705;SDS011;5404;42.656;23.336;2022-10-23T14:29:23;1.67;;;1.65;;
10705;SDS011;5404;42.656;23.336;2022-10-23T14:31:49;0.00;;;0.00;;
10705;SDS011;5404;42.656;23.336;2022-10-23T14:34:15;0.28;;;0.28;;
10705;SDS011;5404;42.656;23.336;2022-10-23T14:36:43;0.20;;;0.20;;
10705;SDS011;5404;42.656;23.336;2022-10-23T14:39:10;0.00;;;0.00;;
10705;SDS011;5404;42.656;23.336;2022-10-23T14:41:35;0.25;;;0.25;;
10705;SDS011;5404;42.656;23.336;2022-10-23T14:44:03;0.00;;;0.00;;
10705;SDS011;5404;42.656;23.336;2022-10-23T14:46:28;0.10;;;0.10;;
10705;SDS011;5404;42.656;23.336;2022-10-23T14:48:54;0.25;;;0.05;;
10705;SDS011;5404;42.656;23.336;2022-10-23T14:51:20;0.10;;;0.10;;
10705;SDS011;5404;42.656;23.336;2022-10-23T14:53:57;0.00;;;0.00;;
10705;SDS011;5404;42.656;23.336;2022-10-23T14:56:27;0.00;;;0.00;;
10705;SDS011;5404;42.656;23.336;2022-10-23T14:58:54;0.00;;;0.00;;
10705;SDS011;5404;42.656;23.336;2022-10-23T15:01:26;0.00;;;0.00;;
10705;SDS011;5404;42.656;23.336;2022-10-23T15:03:57;0.00;;;0.00;;
10705;SDS011;5404;42.656;23.336;2022-10-23T15:06:22;0.00;;;0.00;;
10705;SDS011;5404;42.656;23.336;2022-10-23T15:08:51;0.00;;;0.00;;
10705;SDS011;5404;42.656;23.336;2022-10-23T15:11:21;0.00;;;0.00;;
10705;SDS011;5404;42.656;23.336;2022-10-23T15:13:48;0.00;;;0.00;;
10705;SDS011;5404;42.656;23.336;2022-10-23T15:16:13;0.00;;;0.00;;
10705;SDS011;5404;42.656;23.336;2022-10-23T15:18:39;0.00;;;0.00;;
10705;SDS011;5404;42.656;23.336;2022-10-23T15:21:05;0.17;;;0.17;;
10705;SDS011;5404;42.656;23.336;2022-10-23T15:23:35;0.00;;;0.00;;
10705;SDS011;5404;42.656;23.336;2022-10-23T15:26:04;0.57;;;0.57;;
10705;SDS011;5404;42.656;23.336;2022-10-23T15:28:32;0.57;;;0.57;;
10705;SDS011;5404;42.656;23.336;2022-10-23T15:30:58;0.63;;;0.10;;
10705;SDS011;5404;42.656;23.336;2022-10-23T15:33:24;0.57;;;0.50;;
10705;SDS011;5404;42.656;23.336;2022-10-23T15:35:50;0.10;;;0.10;;
10705;SDS011;5404;42.656;23.336;2022-10-23T15:38:16;0.30;;;0.30;;
10705;SDS011;5404;42.656;23.336;2022-10-23T15:40:42;0.25;;;0.25;;
10705;SDS011;5404;42.656;23.336;2022-10-23T15:43:09;0.45;;;0.45;;
10705;SDS011;5404;42.656;23.336;2022-10-23T15:45:38;0.20;;;0.20;;
10705;SDS011;5404;42.656;23.336;2022-10-23T15:48:06;0.00;;;0.00;;
10705;SDS011;5404;42.656;23.336;2022-10-23T15:50:32;0.00;;;0.00;;
10705;SDS011;5404;42.656;23.336;2022-10-23T15:52:58;1.08;;;1.08;;
10705;SDS011;5404;42.656;23.336;2022-10-23T15:55:24;0.00;;;0.00;;
10705;SDS011;5404;42.656;23.336;2022-10-23T15:57:49;0.30;;;0.30;;
10705;SDS011;5404;42.656;23.336;2022-10-23T16:00:15;0.00;;;0.00;;
10705;SDS011;5404;42.656;23.336;2022-10-23T16:02:41;0.00;;;0.00;;
10705;SDS011;5404;42.656;23.336;2022-10-23T16:05:07;0.08;;;0.08;;
10705;SDS011;5404;42.656;23.336;2022-10-23T16:07:33;0.82;;;0.80;;
10705;SDS011;5404;42.656;23.336;2022-10-23T16:09:58;0.00;;;0.00;;
10705;SDS011;5404;42.656;23.336;2022-10-23T16:12:24;1.25;;;1.17;;
10705;SDS011;5404;42.656;23.336;2022-10-23T16:14:49;0.00;;;0.00;;
10705;SDS011;5404;42.656;23.336;2022-10-23T16:17:15;0.52;;;0.43;;
10705;SDS011;5404;42.656;23.336;2022-10-23T16:19:43;0.00;;;0.00;;
10705;SDS011;5404;42.656;23.336;2022-10-23T16:22:08;0.17;;;0.17;;
10705;SDS011;5404;42.656;23.336;2022-10-23T16:24:34;0.17;;;0.17;;
10705;SDS011;5404;42.656;23.336;2022-10-23T16:27:00;0.10;;;0.10;;
10705;SDS011;5404;42.656;23.336;2022-10-23T16:29:25;0.10;;;0.10;;
10705;SDS011;5404;42.656;23.336;2022-10-23T16:31:52;0.00;;;0.00;;
10705;SDS011;5404;42.656;23.336;2022-10-23T16:34:18;0.75;;;0.75;;
10705;SDS011;5404;42.656;23.336;2022-10-23T16:36:44;0.00;;;0.00;;
10705;SDS011;5404;42.656;23.336;2022-10-23T16:39:10;0.00;;;0.00;;
10705;SDS011;5404;42.656;23.336;2022-10-23T16:41:37;0.30;;;0.30;;
10705;SDS011;5404;42.656;23.336;2022-10-23T16:44:03;0.00;;;0.00;;
10705;SDS011;5404;42.656;23.336;2022-10-23T16:46:29;0.65;;;0.65;;
10705;SDS011;5404;42.656;23.336;2022-10-23T16:48:55;0.10;;;0.10;;
10705;SDS011;5404;42.656;23.336;2022-10-23T16:51:21;0.00;;;0.00;;
10705;SDS011;5404;42.656;23.336;2022-10-23T16:53:49;4.88;;;1.15;;
10705;SDS011;5404;42.656;23.336;2022-10-23T16:56:17;0.60;;;0.47;;
10705;SDS011;5404;42.656;23.336;2022-10-23T16:58:45;0.20;;;0.20;;
10705;SDS011;5404;42.656;23.336;2022-10-23T17:01:21;1.92;;;1.73;;
10705;SDS011;5404;42.656;23.336;2022-10-23T17:03:51;1.42;;;1.35;;
10705;SDS011;5404;42.656;23.336;2022-10-23T17:06:21;0.10;;;0.10;;
10705;SDS011;5404;42.656;23.336;2022-10-23T17:08:48;4.10;;;3.65;;
10705;SDS011;5404;42.656;23.336;2022-10-23T17:11:19;7.25;;;2.15;;
10705;SDS011;5404;42.656;23.336;2022-10-23T17:13:46;6.57;;;3.47;;